createdAt,value
2022-12-23T00:02:38.677Z,99538.63
2022-12-23T00:05:42.053Z,99536.06
2022-12-23T00:08:45.399Z,99545.56
2022-12-23T00:12:11.487Z,99553.28
2022-12-23T00:15:15.061Z,99554.31
2022-12-23T00:18:18.637Z,99550.94
2022-12-23T00:21:24.016Z,99543.66
2022-12-23T00:24:27.312Z,99536.16
2022-12-23T00:27:37.196Z,99533.59
2022-12-23T00:30:51.419Z,99530.91
2022-12-23T00:33:54.547Z,99533.25
2022-12-23T00:36:57.867Z,99525.31
2022-12-23T00:40:19.322Z,99536.16
2022-12-23T00:43:22.769Z,99524.19
2022-12-23T00:46:25.836Z,99537.28
2022-12-23T00:49:45.315Z,99542.78
2022-12-23T00:52:48.310Z,99535.03
2022-12-23T00:55:52.871Z,99526.31
2022-12-23T00:58:55.965Z,99517.25
2022-12-23T01:02:17.860Z,99514.56
2022-12-23T01:05:36.665Z,99516.78
2022-12-23T01:08:40.069Z,99526.97
2022-12-23T01:11:43.468Z,99522.50
2022-12-23T01:14:46.713Z,99506.81
2022-12-23T01:17:49.654Z,99503.13
2022-12-23T01:20:52.912Z,99500.31
2022-12-23T01:23:55.916Z,99493.69
2022-12-23T01:26:59.778Z,99482.69
2022-12-23T01:30:02.749Z,99468.81
2022-12-23T01:33:06.012Z,99464.97
2022-12-23T01:36:10.708Z,99452.94
2022-12-23T01:39:13.919Z,99453.69
2022-12-23T01:42:38.106Z,99460.37
2022-12-23T01:45:41.594Z,99450.63
2022-12-23T01:48:49.740Z,99444.16
2022-12-23T01:51:53.129Z,99449.41
2022-12-23T01:54:56.631Z,99443.91
2022-12-23T01:58:35.104Z,99445.00
2022-12-23T02:01:57.175Z,99429.44
2022-12-23T02:05:00.860Z,99421.97
2022-12-23T02:08:22.532Z,99410.88
2022-12-23T02:11:39.443Z,99410.69
2022-12-23T02:15:35.560Z,99417.81
2022-12-23T02:18:50.822Z,99416.19
2022-12-23T02:22:03.509Z,99421.03
2022-12-23T02:25:22.593Z,99415.50
2022-12-23T02:29:03.215Z,99401.97
2022-12-23T02:32:28.679Z,99403.81
2022-12-23T02:36:05.614Z,99416.75
2022-12-23T02:39:22.788Z,99413.44
2022-12-23T02:42:33.803Z,99425.03
2022-12-23T02:46:00.913Z,99428.22
2022-12-23T02:49:08.143Z,99425.19
2022-12-23T02:52:15.630Z,99413.75
2022-12-23T02:55:24.596Z,99418.00
2022-12-23T02:58:31.947Z,99415.41
2022-12-23T03:01:35.213Z,99420.72
2022-12-23T03:04:40.563Z,99421.94
2022-12-23T03:07:43.979Z,99421.87
2022-12-23T03:11:02.859Z,99421.06
2022-12-23T03:14:08.770Z,99418.97
2022-12-23T03:17:28.366Z,99407.69
2022-12-23T03:20:45.922Z,99405.84
2022-12-23T03:24:05.358Z,99402.19
2022-12-23T03:27:32.469Z,99390.87
2022-12-23T03:30:38.288Z,99386.66
2022-12-23T03:33:43.898Z,99387.66
2022-12-23T03:36:50.534Z,99377.91
2022-12-23T03:39:57.992Z,99372.03
2022-12-23T03:43:23.448Z,99364.59
2022-12-23T03:46:32.635Z,99366.59
2022-12-23T03:49:40.468Z,99361.37
2022-12-23T03:52:49.209Z,99344.56
2022-12-23T03:55:56.696Z,99346.56
2022-12-23T03:59:22.103Z,99355.66
2022-12-23T04:02:36.645Z,99337.34
2022-12-23T04:05:42.114Z,99349.38
2022-12-23T04:08:47.824Z,99351.56
2022-12-23T04:11:51.650Z,99349.34
2022-12-23T04:14:54.719Z,99345.44
2022-12-23T04:17:58.809Z,99362.84
2022-12-23T04:21:01.818Z,99366.47
2022-12-23T04:24:05.329Z,99364.81
2022-12-23T04:27:11.137Z,99366.53
2022-12-23T04:30:14.934Z,99363.66
2022-12-23T04:33:17.873Z,99357.16
2022-12-23T04:36:21.095Z,99357.25
2022-12-23T04:39:24.248Z,99360.00
2022-12-23T04:42:27.570Z,99364.88
2022-12-23T04:45:30.424Z,99369.56
2022-12-23T04:48:33.539Z,99381.91
2022-12-23T04:51:36.527Z,99393.66
2022-12-23T04:54:46.063Z,99399.47
2022-12-23T04:57:49.470Z,99404.59
2022-12-23T05:01:07.819Z,99392.16
2022-12-23T05:04:11.232Z,99388.78
2022-12-23T05:07:14.513Z,99401.88
2022-12-23T05:10:17.549Z,99396.97
2022-12-23T05:13:20.810Z,99389.47
2022-12-23T05:16:24.082Z,99396.56
2022-12-23T05:19:27.486Z,99403.12
2022-12-23T05:22:31.690Z,99401.66
2022-12-23T05:25:37.557Z,99395.53
2022-12-23T05:28:40.623Z,99403.94
2022-12-23T05:31:44.992Z,99403.12
2022-12-23T05:34:47.927Z,99406.50
2022-12-23T05:37:51.671Z,99406.84
2022-12-23T05:40:54.833Z,99413.00
2022-12-23T05:43:57.993Z,99405.19
2022-12-23T05:47:01.085Z,99412.78
2022-12-23T05:50:04.915Z,99406.97
2022-12-23T05:53:08.425Z,99406.06
2022-12-23T05:56:12.088Z,99396.47
2022-12-23T05:59:14.983Z,99394.66
2022-12-23T06:02:18.660Z,99401.38
2022-12-23T06:05:22.490Z,99391.56
2022-12-23T06:08:25.981Z,99382.28
2022-12-23T06:11:30.979Z,99378.47
2022-12-23T06:14:33.927Z,99395.94
2022-12-23T06:17:38.519Z,99382.06
2022-12-23T06:20:41.508Z,99377.81
2022-12-23T06:23:44.757Z,99398.84
2022-12-23T06:26:51.890Z,99403.88
2022-12-23T06:29:58.262Z,99413.28
2022-12-23T06:33:01.160Z,99414.97
2022-12-23T06:36:04.966Z,99420.88
2022-12-23T06:39:09.467Z,99418.31
2022-12-23T06:42:12.727Z,99417.41
2022-12-23T06:45:15.748Z,99415.28
2022-12-23T06:48:19.041Z,99409.25
2022-12-23T06:51:22.090Z,99404.31
2022-12-23T06:54:25.347Z,99400.19
2022-12-23T06:57:28.290Z,99407.13
2022-12-23T07:00:31.892Z,99413.06
2022-12-23T07:03:36.485Z,99410.47
2022-12-23T07:06:41.241Z,99418.88
2022-12-23T07:09:44.484Z,99419.97
2022-12-23T07:12:50.942Z,99413.38
2022-12-23T07:15:54.175Z,99420.28
2022-12-23T07:18:57.427Z,99432.59
2022-12-23T07:22:00.393Z,99432.16
2022-12-23T07:25:04.019Z,99423.91
2022-12-23T07:28:07.304Z,99437.16
2022-12-23T07:31:10.954Z,99433.03
2022-12-23T07:34:13.904Z,99442.66
2022-12-23T07:37:17.122Z,99437.03
2022-12-23T07:40:20.346Z,99418.53
2022-12-23T07:43:23.627Z,99417.19
2022-12-23T07:46:26.595Z,99421.28
2022-12-23T07:49:29.978Z,99408.00
2022-12-23T07:52:32.964Z,99409.00
2022-12-23T07:55:36.765Z,99400.53
2022-12-23T07:58:40.807Z,99396.38
2022-12-23T08:01:44.404Z,99385.41
2022-12-23T08:04:47.709Z,99365.81
2022-12-23T08:07:52.147Z,99352.91
2022-12-23T08:11:03.969Z,99333.22
2022-12-23T08:14:08.356Z,99326.44
2022-12-23T08:17:12.513Z,99323.34
2022-12-23T08:20:15.622Z,99344.28
2022-12-23T08:23:24.585Z,99353.37
2022-12-23T08:26:27.927Z,99396.38
2022-12-23T08:29:36.256Z,99401.72
2022-12-23T08:32:39.552Z,99397.38
2022-12-23T08:35:43.942Z,99393.00
2022-12-23T08:38:47.113Z,99379.06
2022-12-23T08:41:51.465Z,99376.72
2022-12-23T08:44:54.528Z,99363.88
2022-12-23T08:47:57.806Z,99346.31
2022-12-23T08:51:06.377Z,99336.38
2022-12-23T08:54:10.383Z,99322.44
2022-12-23T08:57:13.361Z,99319.38
2022-12-23T09:00:16.787Z,99343.78
2022-12-23T09:03:19.809Z,99343.81
2022-12-23T09:06:29.885Z,99372.34
2022-12-23T09:09:33.528Z,99378.34
2022-12-23T09:12:36.776Z,99409.16
2022-12-23T09:15:44.298Z,99418.84
2022-12-23T09:18:47.797Z,99418.31
2022-12-23T09:21:50.807Z,99404.44
2022-12-23T09:24:59.885Z,99383.91
2022-12-23T09:28:09.884Z,99382.66
2022-12-23T09:31:13.568Z,99392.38
2022-12-23T09:34:16.682Z,99391.97
2022-12-23T09:37:20.468Z,99393.75
2022-12-23T09:40:23.702Z,99378.31
2022-12-23T09:43:39.751Z,99376.50
2022-12-23T09:46:50.835Z,99371.91
2022-12-23T09:50:02.794Z,99352.69
2022-12-23T09:53:08.562Z,99357.41
2022-12-23T09:56:36.924Z,99349.09
2022-12-23T09:59:49.034Z,99338.84
2022-12-23T10:03:04.729Z,99338.75
2022-12-23T10:06:20.760Z,99338.56
2022-12-23T10:09:23.962Z,99342.28
2022-12-23T10:12:40.092Z,99323.84
2022-12-23T10:15:47.445Z,99322.41
2022-12-23T10:19:04.962Z,99329.72
2022-12-23T10:22:43.721Z,99337.78
2022-12-23T10:25:52.442Z,99326.44
2022-12-23T10:29:00.569Z,99333.56
2022-12-23T10:32:31.804Z,99325.91
2022-12-23T10:35:45.916Z,99325.94
2022-12-23T10:39:20.256Z,99321.50
2022-12-23T10:42:31.872Z,99306.81
2022-12-23T10:45:47.646Z,99312.12
2022-12-23T10:49:04.433Z,99316.78
2022-12-23T10:52:21.064Z,99321.38
2022-12-23T10:55:34.043Z,99321.78
2022-12-23T10:58:41.935Z,99316.97
2022-12-23T11:01:48.002Z,99310.28
2022-12-23T11:04:51.495Z,99310.09
2022-12-23T11:07:55.567Z,99310.94
2022-12-23T11:11:01.513Z,99311.69
2022-12-23T11:14:05.836Z,99301.50
2022-12-23T11:17:25.571Z,99290.31
2022-12-23T11:20:28.863Z,99293.53
2022-12-23T11:23:36.570Z,99278.75
2022-12-23T11:26:39.713Z,99276.69
2022-12-23T11:29:49.804Z,99277.06
2022-12-23T11:32:52.847Z,99290.25
2022-12-23T11:36:08.688Z,99289.47
2022-12-23T11:39:23.868Z,99282.47
2022-12-23T11:42:30.483Z,99290.97
2022-12-23T11:45:36.657Z,99293.66
2022-12-23T11:48:40.179Z,99292.37
2022-12-23T11:51:47.068Z,99303.78
2022-12-23T11:54:57.241Z,99305.72
2022-12-23T11:58:06.086Z,99309.19
2022-12-23T12:01:17.289Z,99314.66
2022-12-23T12:04:22.764Z,99316.56
2022-12-23T12:07:26.375Z,99302.56
2022-12-23T12:10:33.460Z,99298.97
2022-12-23T12:13:44.710Z,99306.22
2022-12-23T12:16:58.681Z,99310.22
2022-12-23T12:20:18.544Z,99312.81
2022-12-23T12:23:27.453Z,99317.00
2022-12-23T12:26:33.986Z,99315.69
2022-12-23T12:29:40.635Z,99308.41
2022-12-23T12:33:21.509Z,99316.38
2022-12-23T12:36:27.842Z,99318.69
2022-12-23T12:39:38.773Z,99319.62
2022-12-23T12:42:47.315Z,99312.19
2022-12-23T12:46:06.554Z,99321.47
2022-12-23T12:49:24.900Z,99319.25
2022-12-23T12:52:28.501Z,99324.75
2022-12-23T12:55:42.527Z,99331.75
2022-12-23T12:58:46.798Z,99348.84
2022-12-23T13:01:57.371Z,99346.19
2022-12-23T13:05:28.586Z,99340.84
2022-12-23T13:08:31.752Z,99342.72
2022-12-23T13:11:54.498Z,99339.63
2022-12-23T13:15:03.878Z,99327.00
2022-12-23T13:18:37.291Z,99336.38
2022-12-23T13:21:47.299Z,99334.69
2022-12-23T13:25:18.365Z,99344.13
2022-12-23T13:28:42.397Z,99341.44
2022-12-23T13:32:18.997Z,99340.84
2022-12-23T13:35:32.312Z,99331.41
2022-12-23T13:38:47.201Z,99336.78
2022-12-23T13:41:52.487Z,99343.38
2022-12-23T13:44:56.797Z,99344.06
2022-12-23T13:48:18.244Z,99342.44
2022-12-23T13:51:27.114Z,99337.69
2022-12-23T13:54:39.285Z,99349.28
2022-12-23T13:57:54.017Z,99352.81
2022-12-23T14:01:03.392Z,99358.56
2022-12-23T14:04:32.752Z,99349.31
2022-12-23T14:07:35.873Z,99356.53
2022-12-23T14:10:39.268Z,99355.06
2022-12-23T14:13:51.739Z,99353.06
2022-12-23T14:17:07.225Z,99347.69
2022-12-23T14:20:18.809Z,99351.16
2022-12-23T14:23:27.676Z,99356.16
2022-12-23T14:27:01.509Z,99356.16
2022-12-23T14:30:17.437Z,99352.00
2022-12-23T14:33:23.277Z,99358.59
2022-12-23T14:36:26.789Z,99353.94
2022-12-23T14:39:32.400Z,99364.34
2022-12-23T14:42:42.404Z,99363.47
2022-12-23T14:45:45.294Z,99368.50
2022-12-23T14:48:48.431Z,99365.81
2022-12-23T14:51:51.522Z,99364.34
2022-12-23T14:55:27.988Z,99370.41
2022-12-23T14:58:17.409Z,99364.00
2022-12-23T15:01:32.079Z,99384.72
2022-12-23T15:04:56.769Z,99386.00
2022-12-23T15:07:59.732Z,99389.66
2022-12-23T15:11:02.902Z,99401.94
2022-12-23T15:14:11.147Z,99411.75
2022-12-23T15:17:18.755Z,99407.22
2022-12-23T15:20:26.681Z,99400.72
2022-12-23T15:23:29.854Z,99405.41
2022-12-23T15:26:33.476Z,99393.78
2022-12-23T15:29:36.453Z,99387.38
2022-12-23T15:32:42.309Z,99373.50
2022-12-23T15:35:46.075Z,99369.69
2022-12-23T15:38:49.316Z,99368.13
2022-12-23T15:41:52.228Z,99351.66
2022-12-23T15:44:55.801Z,99367.87
2022-12-23T15:47:58.861Z,99383.34
2022-12-23T15:51:50.015Z,99367.91
2022-12-23T15:55:03.592Z,99364.16
2022-12-23T15:58:06.996Z,99370.44
2022-12-23T16:01:15.013Z,99385.09
2022-12-23T16:04:28.942Z,99373.12
2022-12-23T16:07:32.722Z,99364.03
2022-12-23T16:10:36.094Z,99369.41
2022-12-23T16:13:43.117Z,99368.63
2022-12-23T16:16:52.562Z,99362.91
2022-12-23T16:19:58.241Z,99378.00
2022-12-23T16:23:03.174Z,99382.94
2022-12-23T16:26:06.329Z,99377.72
2022-12-23T16:29:10.929Z,99372.91
2022-12-23T16:32:17.242Z,99369.66
2022-12-23T16:35:36.259Z,99376.37
2022-12-23T16:38:39.220Z,99365.00
2022-12-23T16:41:42.638Z,99371.84
2022-12-23T16:44:45.659Z,99364.12
2022-12-23T16:47:49.499Z,99356.78
2022-12-23T16:50:52.841Z,99356.69
2022-12-23T16:54:00.631Z,99359.44
2022-12-23T16:57:03.841Z,99367.50
2022-12-23T17:00:07.861Z,99357.22
2022-12-23T17:03:17.216Z,99368.75
2022-12-23T17:06:21.053Z,99363.09
2022-12-23T17:09:24.575Z,99345.09
2022-12-23T17:12:28.501Z,99355.56
2022-12-23T17:15:31.814Z,99351.88
2022-12-23T17:18:35.567Z,99340.97
2022-12-23T17:21:39.891Z,99324.75
2022-12-23T17:24:43.206Z,99330.47
2022-12-23T17:27:46.294Z,99332.03
2022-12-23T17:30:54.698Z,99335.84
2022-12-23T17:33:57.789Z,99327.53
2022-12-23T17:37:02.112Z,99336.72
2022-12-23T17:40:05.751Z,99333.94
2022-12-23T17:43:16.508Z,99335.97
2022-12-23T17:46:19.573Z,99344.78
2022-12-23T17:49:22.717Z,99341.34
2022-12-23T17:52:25.451Z,99352.41
2022-12-23T17:55:29.412Z,99350.06
2022-12-23T17:58:32.288Z,99351.53
2022-12-23T18:01:35.693Z,99343.03
2022-12-23T18:04:39.715Z,99324.72
2022-12-23T18:07:42.703Z,99319.84
2022-12-23T18:10:46.205Z,99314.03
2022-12-23T18:13:51.664Z,99326.25
2022-12-23T18:16:55.800Z,99313.06
2022-12-23T18:19:58.963Z,99311.62
2022-12-23T18:23:03.027Z,99314.09
2022-12-23T18:26:06.139Z,99320.00
2022-12-23T18:29:09.385Z,99319.47
2022-12-23T18:32:19.754Z,99321.59
2022-12-23T18:35:31.770Z,99327.75
2022-12-23T18:38:35.134Z,99327.31
2022-12-23T18:41:38.341Z,99318.53
2022-12-23T18:44:42.877Z,99319.97
2022-12-23T18:47:46.519Z,99316.53
2022-12-23T18:50:49.619Z,99314.19
2022-12-23T18:53:52.873Z,99303.72
2022-12-23T18:56:55.959Z,99303.59
2022-12-23T18:59:59.230Z,99314.00
2022-12-23T19:03:02.497Z,99330.84
2022-12-23T19:06:07.860Z,99334.12
2022-12-23T19:09:19.707Z,99330.00
2022-12-23T19:12:23.085Z,99326.19
2022-12-23T19:15:26.811Z,99323.84
2022-12-23T19:18:30.085Z,99320.91
2022-12-23T19:21:33.562Z,99322.22
2022-12-23T19:24:42.522Z,99335.12
2022-12-23T19:27:55.393Z,99356.00
2022-12-23T19:30:58.667Z,99357.62
2022-12-23T19:34:01.909Z,99351.09
2022-12-23T19:37:05.309Z,99356.13
2022-12-23T19:40:09.157Z,99348.66
2022-12-23T19:43:12.740Z,99353.53
2022-12-23T19:46:17.014Z,99359.16
2022-12-23T19:49:20.631Z,99357.22
2022-12-23T19:52:23.624Z,99355.19
2022-12-23T19:55:27.001Z,99353.06
2022-12-23T19:58:35.875Z,99363.47
2022-12-23T20:01:39.516Z,99359.66
2022-12-23T20:04:43.621Z,99345.37
2022-12-23T20:07:47.543Z,99339.47
2022-12-23T20:10:52.616Z,99357.03
2022-12-23T20:13:56.161Z,99360.28
2022-12-23T20:17:00.357Z,99367.34
2022-12-23T20:20:03.817Z,99358.25
2022-12-23T20:23:07.436Z,99349.12
2022-12-23T20:26:12.438Z,99353.03
2022-12-23T20:29:16.109Z,99361.50
2022-12-23T20:32:19.824Z,99362.72
2022-12-23T20:35:23.323Z,99360.69
2022-12-23T20:38:26.239Z,99358.56
2022-12-23T20:41:31.301Z,99340.44
2022-12-23T20:44:36.035Z,99350.69
2022-12-23T20:47:40.290Z,99341.47
2022-12-23T20:50:43.589Z,99330.37
2022-12-23T20:53:47.374Z,99328.44
2022-12-23T20:56:50.645Z,99327.75
2022-12-23T20:59:54.194Z,99329.81
2022-12-23T21:02:57.971Z,99324.53
2022-12-23T21:06:01.341Z,99320.59
2022-12-23T21:09:06.962Z,99302.22
2022-12-23T21:12:10.597Z,99307.69
2022-12-23T21:15:13.626Z,99310.81
2022-12-23T21:18:17.428Z,99300.75
2022-12-23T21:21:22.404Z,99294.84
2022-12-23T21:24:25.851Z,99297.81
2022-12-23T21:27:28.677Z,99284.47
2022-12-23T21:30:31.847Z,99286.09
2022-12-23T21:33:39.650Z,99273.28
2022-12-23T21:36:43.133Z,99273.19
2022-12-23T21:39:46.131Z,99252.63
2022-12-23T21:42:49.579Z,99257.81
2022-12-23T21:45:59.732Z,99265.12
2022-12-23T21:49:03.072Z,99266.75
2022-12-23T21:52:06.013Z,99245.31
2022-12-23T21:55:09.625Z,99242.88
2022-12-23T21:58:13.072Z,99232.38
2022-12-23T22:01:20.854Z,99215.97
2022-12-23T22:04:24.207Z,99204.50
2022-12-23T22:07:27.177Z,99191.13
2022-12-23T22:10:31.035Z,99191.03
2022-12-23T22:13:33.957Z,99189.84
2022-12-23T22:16:37.940Z,99201.81
2022-12-23T22:19:41.250Z,99195.59
2022-12-23T22:22:44.637Z,99189.53
2022-12-23T22:25:54.867Z,99172.28
2022-12-23T22:29:00.474Z,99155.44
2022-12-23T22:32:03.383Z,99149.34
2022-12-23T22:35:06.875Z,99140.00
2022-12-23T22:38:10.172Z,99147.16
2022-12-23T22:41:15.662Z,99160.88
2022-12-23T22:44:19.482Z,99163.16
2022-12-23T22:47:22.835Z,99180.84
2022-12-23T22:50:26.000Z,99181.50
2022-12-23T22:53:29.947Z,99180.22
2022-12-23T22:56:33.053Z,99177.59
2022-12-23T22:59:36.367Z,99182.78
2022-12-23T23:02:39.408Z,99205.97
2022-12-23T23:05:42.754Z,99213.97
2022-12-23T23:08:46.947Z,99233.03
2022-12-23T23:11:50.352Z,99244.75
2022-12-23T23:14:53.650Z,99232.78
2022-12-23T23:17:56.965Z,99239.63
2022-12-23T23:21:00.180Z,99226.19
2022-12-23T23:24:04.689Z,99219.78
2022-12-23T23:27:07.667Z,99219.31
2022-12-23T23:30:11.137Z,99215.91
2022-12-23T23:33:14.169Z,99215.34
2022-12-23T23:36:17.456Z,99187.25
2022-12-23T23:39:20.423Z,99175.19
2022-12-23T23:42:23.844Z,99159.88
2022-12-23T23:45:27.673Z,99175.38
2022-12-23T23:48:31.011Z,99184.31
2022-12-23T23:51:35.102Z,99175.88
2022-12-23T23:54:39.830Z,99190.59
2022-12-23T23:57:42.732Z,99185.94
